createdAt,value
2022-10-10T00:01:27.267Z,100.00
2022-10-10T00:03:55.063Z,100.00
2022-10-10T00:06:22.989Z,100.00
2022-10-10T00:08:50.932Z,100.00
2022-10-10T00:11:19.796Z,100.00
2022-10-10T00:13:49.239Z,100.00
2022-10-10T00:16:17.603Z,100.00
2022-10-10T00:18:45.233Z,100.00
2022-10-10T00:21:13.065Z,100.00
2022-10-10T00:23:40.853Z,100.00
2022-10-10T00:26:09.402Z,100.00
2022-10-10T00:28:38.408Z,100.00
2022-10-10T00:31:08.821Z,100.00
2022-10-10T00:33:36.820Z,100.00
2022-10-10T00:36:04.557Z,100.00
2022-10-10T00:38:32.603Z,100.00
2022-10-10T00:41:00.342Z,100.00
2022-10-10T00:43:28.411Z,100.00
2022-10-10T00:45:56.335Z,100.00
2022-10-10T00:48:26.449Z,100.00
2022-10-10T00:50:56.798Z,100.00
2022-10-10T00:53:27.750Z,100.00
2022-10-10T00:55:55.674Z,100.00
2022-10-10T00:58:23.826Z,100.00
2022-10-10T01:00:51.802Z,100.00
2022-10-10T01:03:19.533Z,100.00
2022-10-10T01:05:48.841Z,100.00
2022-10-10T01:08:17.374Z,100.00
2022-10-10T01:10:55.816Z,100.00
2022-10-10T01:13:29.518Z,100.00
2022-10-10T01:16:01.354Z,100.00
2022-10-10T01:18:34.778Z,100.00
2022-10-10T01:21:10.154Z,100.00
2022-10-10T01:24:19.082Z,100.00
2022-10-10T01:27:11.399Z,100.00
2022-10-10T01:29:43.816Z,100.00
2022-10-10T01:32:15.618Z,100.00
2022-10-10T01:34:50.783Z,100.00
2022-10-10T01:37:20.070Z,100.00
2022-10-10T01:39:55.700Z,100.00
2022-10-10T01:42:26.904Z,100.00
2022-10-10T01:44:56.235Z,100.00
2022-10-10T01:47:24.239Z,100.00
2022-10-10T01:49:54.566Z,100.00
2022-10-10T01:52:31.233Z,100.00
2022-10-10T01:55:10.053Z,100.00
2022-10-10T01:57:44.648Z,100.00
2022-10-10T02:00:14.792Z,100.00
2022-10-10T02:02:46.444Z,100.00
2022-10-10T02:05:19.072Z,100.00
2022-10-10T02:07:50.257Z,100.00
2022-10-10T02:10:23.138Z,100.00
2022-10-10T02:12:51.436Z,100.00
2022-10-10T02:15:23.215Z,100.00
2022-10-10T02:17:51.412Z,100.00
2022-10-10T02:20:22.116Z,100.00
2022-10-10T02:22:51.455Z,100.00
2022-10-10T02:25:24.080Z,100.00
2022-10-10T02:27:58.972Z,100.00
2022-10-10T02:30:28.074Z,100.00
2022-10-10T02:32:59.055Z,100.00
2022-10-10T02:35:31.347Z,100.00
2022-10-10T02:37:59.955Z,100.00
2022-10-10T02:40:29.984Z,100.00
2022-10-10T02:42:59.634Z,100.00
2022-10-10T02:45:30.928Z,100.00
2022-10-10T02:47:58.676Z,100.00
2022-10-10T02:50:26.945Z,100.00
2022-10-10T02:52:54.871Z,100.00
2022-10-10T02:55:22.496Z,100.00
2022-10-10T02:57:50.110Z,100.00
2022-10-10T03:00:18.126Z,100.00
2022-10-10T03:02:47.130Z,100.00
2022-10-10T03:05:15.258Z,100.00
2022-10-10T03:07:42.799Z,100.00
2022-10-10T03:10:10.819Z,100.00
2022-10-10T03:12:38.421Z,100.00
2022-10-10T03:15:11.389Z,100.00
2022-10-10T03:17:39.386Z,100.00
2022-10-10T03:20:09.654Z,100.00
2022-10-10T03:22:37.143Z,100.00
2022-10-10T03:25:05.601Z,100.00
2022-10-10T03:27:33.134Z,100.00
2022-10-10T03:30:00.705Z,100.00
2022-10-10T03:32:28.237Z,100.00
2022-10-10T03:34:55.808Z,100.00
2022-10-10T03:37:24.875Z,100.00
2022-10-10T03:39:52.503Z,100.00
2022-10-10T03:42:20.031Z,100.00
2022-10-10T03:44:47.535Z,100.00
2022-10-10T03:47:15.043Z,100.00
2022-10-10T03:49:42.536Z,100.00
2022-10-10T03:52:10.055Z,100.00
2022-10-10T03:54:39.022Z,100.00
2022-10-10T03:57:06.587Z,100.00
2022-10-10T03:59:34.113Z,100.00
2022-10-10T04:02:01.641Z,100.00
2022-10-10T04:04:29.160Z,100.00
2022-10-10T04:06:56.669Z,100.00
2022-10-10T04:09:24.225Z,100.00
2022-10-10T04:11:53.141Z,100.00
2022-10-10T04:14:20.751Z,100.00
2022-10-10T04:16:48.355Z,100.00
2022-10-10T04:19:15.885Z,100.00
2022-10-10T04:21:43.417Z,100.00
2022-10-10T04:24:11.457Z,100.00
2022-10-10T04:26:38.965Z,100.00
2022-10-10T04:29:08.300Z,100.00
2022-10-10T04:31:35.915Z,100.00
2022-10-10T04:34:03.844Z,100.00
2022-10-10T04:36:31.854Z,100.00
2022-10-10T04:38:59.375Z,100.00
2022-10-10T04:41:26.895Z,100.00
2022-10-10T04:43:54.424Z,100.00
2022-10-10T04:46:23.291Z,100.00
2022-10-10T04:48:50.872Z,100.00
2022-10-10T04:51:19.680Z,100.00
2022-10-10T04:53:50.440Z,100.00
2022-10-10T04:56:18.358Z,100.00
2022-10-10T04:58:45.869Z,100.00
2022-10-10T05:01:13.488Z,100.00
2022-10-10T05:03:42.372Z,100.00
2022-10-10T05:06:10.264Z,100.00
2022-10-10T05:08:37.858Z,100.00
2022-10-10T05:11:05.464Z,100.00
2022-10-10T05:13:33.098Z,100.00
2022-10-10T05:16:01.110Z,100.00
2022-10-10T05:18:28.618Z,100.00
2022-10-10T05:21:03.258Z,100.00
2022-10-10T05:23:31.954Z,100.00
2022-10-10T05:25:59.488Z,100.00
2022-10-10T05:28:27.203Z,100.00
2022-10-10T05:30:54.723Z,100.00
2022-10-10T05:33:22.319Z,100.00
2022-10-10T05:35:49.899Z,100.00
2022-10-10T05:38:18.900Z,100.00
2022-10-10T05:40:46.416Z,100.00
2022-10-10T05:43:13.948Z,100.00
2022-10-10T05:45:41.448Z,100.00
2022-10-10T05:48:08.985Z,100.00
2022-10-10T05:50:38.823Z,100.00
2022-10-10T05:53:06.744Z,100.00
2022-10-10T05:55:36.565Z,100.00
2022-10-10T05:58:04.118Z,100.00
2022-10-10T06:00:31.665Z,100.00
2022-10-10T06:02:59.325Z,100.00
2022-10-10T06:05:26.947Z,100.00
2022-10-10T06:08:12.213Z,100.00
2022-10-10T06:10:43.131Z,100.00
2022-10-10T06:13:11.013Z,100.00
2022-10-10T06:15:38.544Z,100.00
2022-10-10T06:18:07.419Z,100.00
2022-10-10T06:20:35.806Z,100.00
2022-10-10T06:23:03.684Z,100.00
2022-10-10T06:25:43.446Z,100.00
2022-10-10T06:28:13.095Z,100.00
2022-10-10T06:30:41.573Z,100.00
2022-10-10T06:33:09.162Z,100.00
2022-10-10T06:35:39.972Z,100.00
2022-10-10T06:38:07.481Z,100.00
2022-10-10T06:40:35.056Z,100.00
2022-10-10T06:43:04.452Z,100.00
2022-10-10T06:45:36.795Z,100.00
2022-10-10T06:48:04.577Z,100.00
2022-10-10T06:50:32.075Z,100.00
2022-10-10T06:53:00.108Z,100.00
2022-10-10T06:55:27.759Z,100.00
2022-10-10T06:57:55.415Z,100.00
2022-10-10T07:00:22.976Z,100.00
2022-10-10T07:02:52.602Z,100.00
2022-10-10T07:05:20.346Z,100.00
2022-10-10T07:07:47.891Z,100.00
2022-10-10T07:10:16.567Z,100.00
2022-10-10T07:12:45.167Z,100.00
2022-10-10T07:15:13.408Z,100.00
2022-10-10T07:17:40.972Z,100.00
2022-10-10T07:20:10.661Z,100.00
2022-10-10T07:22:38.412Z,100.00
2022-10-10T07:25:06.664Z,100.00
2022-10-10T07:27:34.200Z,100.00
2022-10-10T07:30:01.686Z,100.00
2022-10-10T07:32:29.224Z,100.00
2022-10-10T07:34:58.276Z,100.00
2022-10-10T07:37:27.397Z,100.00
2022-10-10T07:39:55.011Z,100.00
2022-10-10T07:42:22.729Z,100.00
2022-10-10T07:44:50.315Z,100.00
2022-10-10T07:47:17.881Z,100.00
2022-10-10T07:49:45.499Z,100.00
2022-10-10T07:52:13.036Z,100.00
2022-10-10T07:54:42.633Z,100.00
2022-10-10T07:57:10.306Z,100.00
2022-10-10T07:59:37.839Z,100.00
2022-10-10T08:02:05.460Z,100.00
2022-10-10T08:04:33.035Z,100.00
2022-10-10T08:07:00.646Z,100.00
2022-10-10T08:09:28.578Z,100.00
2022-10-10T08:11:57.447Z,100.00
2022-10-10T08:14:25.068Z,100.00
2022-10-10T08:16:52.583Z,100.00
2022-10-10T08:19:20.107Z,100.00
2022-10-10T08:21:47.625Z,100.00
2022-10-10T08:24:15.145Z,100.00
2022-10-10T08:26:42.676Z,100.00
2022-10-10T08:29:11.527Z,100.00
2022-10-10T08:31:39.112Z,100.00
2022-10-10T08:34:06.651Z,100.00
2022-10-10T08:36:34.199Z,100.00
2022-10-10T08:39:01.809Z,100.00
2022-10-10T08:41:36.470Z,100.00
2022-10-10T08:44:07.151Z,100.00
2022-10-10T08:46:38.160Z,100.00
2022-10-10T08:49:14.218Z,100.00
2022-10-10T08:51:43.104Z,100.00
2022-10-10T08:54:12.508Z,100.00
2022-10-10T08:56:40.859Z,98.92
2022-10-10T08:59:13.240Z,95.99
2022-10-10T09:02:18.593Z,96.18
2022-10-10T09:04:33.453Z,96.78
2022-10-10T09:07:12.321Z,100.00
2022-10-10T09:09:45.328Z,100.00
2022-10-10T09:12:19.352Z,98.83
2022-10-10T09:14:52.450Z,98.92
2022-10-10T09:17:35.350Z,98.13
2022-10-10T09:20:13.261Z,99.82
2022-10-10T09:22:45.974Z,100.00
2022-10-10T09:25:17.898Z,98.87
2022-10-10T09:27:57.179Z,96.54
2022-10-10T09:30:25.297Z,96.54
2022-10-10T09:32:57.459Z,96.60
2022-10-10T09:35:26.758Z,96.43
2022-10-10T09:37:58.412Z,95.01
2022-10-10T09:40:28.684Z,95.57
2022-10-10T09:42:57.137Z,93.00
2022-10-10T09:45:28.449Z,95.42
2022-10-10T09:47:57.366Z,91.18
2022-10-10T09:50:25.655Z,93.52
2022-10-10T09:52:53.887Z,95.11
2022-10-10T09:55:26.879Z,92.83
2022-10-10T09:57:56.592Z,95.71
2022-10-10T10:00:30.616Z,97.44
2022-10-10T10:03:16.985Z,92.50
2022-10-10T10:05:55.502Z,91.75
2022-10-10T10:08:26.167Z,88.37
2022-10-10T10:10:57.888Z,85.74
2022-10-10T10:13:28.490Z,86.16
2022-10-10T10:16:05.099Z,85.84
2022-10-10T10:18:39.894Z,83.17
2022-10-10T10:21:14.865Z,85.81
2022-10-10T10:23:44.555Z,85.77
2022-10-10T10:26:18.934Z,83.59
2022-10-10T10:28:47.935Z,82.64
2022-10-10T10:31:21.612Z,85.65
2022-10-10T10:33:56.955Z,84.86
2022-10-10T10:36:35.972Z,84.82
2022-10-10T10:39:13.096Z,84.65
2022-10-10T10:41:45.421Z,83.77
2022-10-10T10:44:19.633Z,81.71
2022-10-10T10:46:53.053Z,83.12
2022-10-10T10:49:37.464Z,81.66
2022-10-10T10:52:27.391Z,84.29
2022-10-10T10:55:05.279Z,78.40
2022-10-10T10:58:00.038Z,79.35
2022-10-10T11:05:19.508Z,76.59
2022-10-10T11:06:24.856Z,76.33
2022-10-10T11:09:02.152Z,76.75
2022-10-10T11:11:38.140Z,77.33
2022-10-10T11:14:16.423Z,80.08
2022-10-10T11:16:48.929Z,77.82
2022-10-10T11:19:23.920Z,79.86
2022-10-10T11:21:57.319Z,78.65
2022-10-10T11:24:30.822Z,73.43
2022-10-10T11:27:02.642Z,76.62
2022-10-10T11:29:32.788Z,75.19
2022-10-10T11:32:04.635Z,76.89
2022-10-10T11:34:34.624Z,76.10
2022-10-10T11:37:06.976Z,78.12
2022-10-10T11:39:38.009Z,76.51
2022-10-10T11:42:08.894Z,73.86
2022-10-10T11:44:40.028Z,71.33
2022-10-10T11:47:13.225Z,75.19
2022-10-10T11:49:48.356Z,74.50
2022-10-10T11:52:33.472Z,73.50
2022-10-10T11:55:06.246Z,74.64
2022-10-10T11:57:37.866Z,79.24
2022-10-10T12:00:07.239Z,77.35
2022-10-10T12:02:37.196Z,75.24
2022-10-10T12:05:06.408Z,78.45
2022-10-10T12:07:41.277Z,76.63
2022-10-10T12:10:11.500Z,77.15
2022-10-10T12:12:41.304Z,76.50
2022-10-10T12:15:10.727Z,78.56
2022-10-10T12:17:42.495Z,77.34
2022-10-10T12:20:26.273Z,76.47
2022-10-10T12:23:10.051Z,74.64
2022-10-10T12:25:42.121Z,76.60
2022-10-10T12:28:25.599Z,76.30
2022-10-10T12:31:19.982Z,77.58
2022-10-10T12:34:05.946Z,75.16
2022-10-10T12:36:58.201Z,78.73
2022-10-10T12:39:40.669Z,78.79
2022-10-10T12:42:37.667Z,77.23
2022-10-10T12:45:09.729Z,78.67
2022-10-10T12:48:03.960Z,76.97
2022-10-10T12:50:34.300Z,74.53
2022-10-10T12:53:04.141Z,74.23
2022-10-10T12:55:40.339Z,78.86
2022-10-10T12:58:20.881Z,79.00
2022-10-10T13:00:54.814Z,79.74
2022-10-10T13:03:27.909Z,76.70
2022-10-10T13:05:55.877Z,77.42
2022-10-10T13:08:25.927Z,73.54
2022-10-10T13:11:06.789Z,78.27
2022-10-10T13:13:34.481Z,78.52
2022-10-10T13:16:07.950Z,82.58
2022-10-10T13:18:37.007Z,82.56
2022-10-10T13:21:06.492Z,82.07
2022-10-10T13:23:36.322Z,86.35
2022-10-10T13:26:06.619Z,89.55
2022-10-10T13:28:34.294Z,90.82
2022-10-10T13:31:02.100Z,91.77
2022-10-10T13:33:33.451Z,89.33
2022-10-10T13:36:06.597Z,91.01
2022-10-10T13:38:34.786Z,93.49
2022-10-10T13:41:05.526Z,94.98
2022-10-10T13:43:34.268Z,100.00
2022-10-10T13:46:03.588Z,100.00
2022-10-10T13:48:40.817Z,100.00
2022-10-10T13:51:10.906Z,100.00
2022-10-10T13:53:59.342Z,100.00
2022-10-10T13:56:30.699Z,100.00
2022-10-10T13:59:00.143Z,100.00
2022-10-10T14:01:34.577Z,100.00
2022-10-10T14:04:21.032Z,100.00
2022-10-10T14:06:51.772Z,100.00
2022-10-10T14:09:22.297Z,100.00
2022-10-10T14:11:52.501Z,100.00
2022-10-10T14:14:22.750Z,100.00
2022-10-10T14:16:59.579Z,100.00
2022-10-10T14:19:27.137Z,100.00
2022-10-10T14:21:54.843Z,100.00
2022-10-10T14:24:22.351Z,100.00
2022-10-10T14:26:51.203Z,100.00
2022-10-10T14:29:19.218Z,100.00
2022-10-10T14:31:47.259Z,100.00
2022-10-10T14:34:15.757Z,100.00
2022-10-10T14:36:47.533Z,100.00
2022-10-10T14:39:16.055Z,100.00
2022-10-10T14:41:43.590Z,100.00
2022-10-10T14:44:12.940Z,100.00
2022-10-10T14:46:41.019Z,100.00
2022-10-10T14:49:16.102Z,100.00
2022-10-10T14:51:43.595Z,100.00
2022-10-10T14:54:14.091Z,100.00
2022-10-10T14:57:08.426Z,100.00
2022-10-10T14:59:47.955Z,100.00
2022-10-10T15:02:18.244Z,100.00
2022-10-10T15:04:45.757Z,100.00
2022-10-10T15:07:14.966Z,100.00
2022-10-10T15:09:56.587Z,100.00
2022-10-10T15:12:30.351Z,100.00
2022-10-10T15:14:59.233Z,100.00
2022-10-10T15:17:27.139Z,100.00
2022-10-10T15:19:54.687Z,100.00
2022-10-10T15:22:22.314Z,100.00
2022-10-10T15:24:49.827Z,100.00
2022-10-10T15:27:17.309Z,100.00
2022-10-10T15:29:44.795Z,100.00
2022-10-10T15:32:13.671Z,100.00
2022-10-10T15:34:41.184Z,100.00
2022-10-10T15:37:10.384Z,100.00
2022-10-10T15:39:38.318Z,100.00
2022-10-10T15:42:12.217Z,100.00
2022-10-10T15:44:45.259Z,100.00
2022-10-10T15:47:14.649Z,100.00
2022-10-10T15:49:42.220Z,100.00
2022-10-10T15:52:10.478Z,100.00
2022-10-10T15:54:37.975Z,100.00
2022-10-10T15:57:05.541Z,100.00
2022-10-10T15:59:33.102Z,100.00
2022-10-10T16:02:00.642Z,100.00
2022-10-10T16:04:29.553Z,100.00
2022-10-10T16:07:24.141Z,100.00
2022-10-10T16:09:45.084Z,100.00
2022-10-10T16:12:12.610Z,100.00
2022-10-10T16:14:40.122Z,100.00
2022-10-10T16:17:07.791Z,100.00
2022-10-10T16:19:36.623Z,100.00
2022-10-10T16:22:04.142Z,100.00
2022-10-10T16:24:31.668Z,100.00
2022-10-10T16:27:02.058Z,100.00
2022-10-10T16:29:29.592Z,100.00
2022-10-10T16:31:57.101Z,100.00
2022-10-10T16:34:24.601Z,100.00
2022-10-10T16:36:53.517Z,100.00
2022-10-10T16:39:21.041Z,100.00
2022-10-10T16:41:49.313Z,100.00
2022-10-10T16:44:17.307Z,100.00
2022-10-10T16:46:44.925Z,100.00
2022-10-10T16:49:16.128Z,100.00
2022-10-10T16:51:44.209Z,100.00
2022-10-10T16:54:13.103Z,100.00
2022-10-10T16:56:41.758Z,100.00
2022-10-10T16:59:09.320Z,100.00
2022-10-10T17:01:36.917Z,100.00
2022-10-10T17:04:04.929Z,100.00
2022-10-10T17:06:37.207Z,100.00
2022-10-10T17:09:07.048Z,100.00
2022-10-10T17:11:35.957Z,100.00
2022-10-10T17:14:04.012Z,100.00
2022-10-10T17:17:07.133Z,100.00
2022-10-10T17:19:19.421Z,100.00
2022-10-10T17:21:46.935Z,100.00
2022-10-10T17:24:14.430Z,100.00
2022-10-10T17:26:43.293Z,100.00
2022-10-10T17:29:11.221Z,100.00
2022-10-10T17:31:38.792Z,100.00
2022-10-10T17:34:06.359Z,100.00
2022-10-10T17:36:33.870Z,100.00
2022-10-10T17:39:01.375Z,100.00
2022-10-10T17:41:29.657Z,100.00
2022-10-10T17:43:58.576Z,100.00
2022-10-10T17:46:34.751Z,100.00
2022-10-10T17:49:03.808Z,100.00
2022-10-10T17:51:31.407Z,100.00
2022-10-10T17:53:59.761Z,100.00
2022-10-10T17:56:27.688Z,100.00
2022-10-10T17:58:55.235Z,100.00
2022-10-10T18:01:24.236Z,100.00
2022-10-10T18:03:52.097Z,100.00
2022-10-10T18:06:21.368Z,100.00
2022-10-10T18:08:49.632Z,100.00
2022-10-10T18:11:18.413Z,100.00
2022-10-10T18:13:46.301Z,100.00
2022-10-10T18:16:15.717Z,100.00
2022-10-10T18:18:50.337Z,100.00
2022-10-10T18:21:19.563Z,100.00
2022-10-10T18:23:47.090Z,100.00
2022-10-10T18:26:16.224Z,100.00
2022-10-10T18:28:44.618Z,100.00
2022-10-10T18:31:14.321Z,100.00
2022-10-10T18:33:44.032Z,100.00
2022-10-10T18:36:13.848Z,100.00
2022-10-10T18:38:41.356Z,100.00
2022-10-10T18:41:10.620Z,100.00
2022-10-10T18:43:39.599Z,100.00
2022-10-10T18:46:09.002Z,100.00
2022-10-10T18:48:38.422Z,100.00
2022-10-10T18:51:07.676Z,100.00
2022-10-10T18:53:37.999Z,100.00
2022-10-10T18:56:06.754Z,100.00
2022-10-10T18:58:36.819Z,100.00
2022-10-10T19:01:08.677Z,100.00
2022-10-10T19:03:36.993Z,100.00
2022-10-10T19:06:05.919Z,100.00
2022-10-10T19:08:34.540Z,100.00
2022-10-10T19:11:05.320Z,100.00
2022-10-10T19:13:33.859Z,100.00
2022-10-10T19:16:05.114Z,100.00
2022-10-10T19:18:32.724Z,100.00
2022-10-10T19:21:00.596Z,100.00
2022-10-10T19:23:28.354Z,100.00
2022-10-10T19:25:56.112Z,100.00
2022-10-10T19:28:24.967Z,100.00
2022-10-10T19:30:52.498Z,100.00
2022-10-10T19:33:20.023Z,100.00
2022-10-10T19:35:49.873Z,100.00
2022-10-10T19:38:19.875Z,100.00
2022-10-10T19:40:48.565Z,100.00
2022-10-10T19:43:18.474Z,100.00
2022-10-10T19:45:48.737Z,100.00
2022-10-10T19:48:16.898Z,100.00
2022-10-10T19:50:45.296Z,100.00
2022-10-10T19:53:14.494Z,100.00
2022-10-10T19:55:42.137Z,100.00
2022-10-10T19:58:09.756Z,100.00
2022-10-10T20:00:38.327Z,100.00
2022-10-10T20:03:07.199Z,100.00
2022-10-10T20:05:34.775Z,100.00
2022-10-10T20:08:02.270Z,100.00
2022-10-10T20:10:29.788Z,100.00
2022-10-10T20:12:57.471Z,100.00
2022-10-10T20:15:24.976Z,100.00
2022-10-10T20:17:52.452Z,100.00
2022-10-10T20:20:21.307Z,100.00
2022-10-10T20:22:48.799Z,100.00
2022-10-10T20:25:16.340Z,100.00
2022-10-10T20:27:43.824Z,100.00
2022-10-10T20:30:12.315Z,100.00
2022-10-10T20:32:39.949Z,100.00
2022-10-10T20:35:08.041Z,100.00
2022-10-10T20:37:36.907Z,100.00
2022-10-10T20:40:04.863Z,100.00
2022-10-10T20:42:32.377Z,100.00
2022-10-10T20:44:59.888Z,100.00
2022-10-10T20:47:27.375Z,100.00
2022-10-10T20:49:55.225Z,100.00
2022-10-10T20:52:22.783Z,100.00
2022-10-10T20:54:51.607Z,100.00
2022-10-10T20:57:19.179Z,100.00
2022-10-10T20:59:46.671Z,100.00
2022-10-10T21:02:19.122Z,100.00
2022-10-10T21:04:47.068Z,100.00
2022-10-10T21:07:14.979Z,100.00
2022-10-10T21:09:42.502Z,100.00
2022-10-10T21:12:11.348Z,100.00
2022-10-10T21:14:38.846Z,100.00
2022-10-10T21:17:06.352Z,100.00
2022-10-10T21:19:33.840Z,100.00
2022-10-10T21:22:01.413Z,100.00
2022-10-10T21:24:28.940Z,100.00
2022-10-10T21:26:56.479Z,100.00
2022-10-10T21:29:25.351Z,100.00
2022-10-10T21:31:53.064Z,100.00
2022-10-10T21:34:20.557Z,100.00
2022-10-10T21:36:48.140Z,100.00
2022-10-10T21:39:15.942Z,100.00
2022-10-10T21:41:43.476Z,100.00
2022-10-10T21:44:11.114Z,100.00
2022-10-10T21:46:39.990Z,100.00
2022-10-10T21:49:09.954Z,100.00
2022-10-10T21:51:39.145Z,100.00
2022-10-10T21:54:07.504Z,100.00
2022-10-10T21:56:35.258Z,100.00
2022-10-10T21:59:02.880Z,100.00
2022-10-10T22:01:32.658Z,100.00
2022-10-10T22:04:02.572Z,100.00
2022-10-10T22:06:30.442Z,100.00
2022-10-10T22:08:59.579Z,100.00
2022-10-10T22:11:28.633Z,100.00
2022-10-10T22:13:56.148Z,100.00
2022-10-10T22:16:23.753Z,100.00
2022-10-10T22:18:54.371Z,100.00
2022-10-10T22:21:25.706Z,100.00
2022-10-10T22:23:57.067Z,100.00
2022-10-10T22:26:24.577Z,100.00
2022-10-10T22:28:52.155Z,100.00
2022-10-10T22:31:20.041Z,100.00
2022-10-10T22:33:47.551Z,100.00
2022-10-10T22:36:15.385Z,100.00
2022-10-10T22:38:45.576Z,100.00
2022-10-10T22:41:13.536Z,100.00
2022-10-10T22:43:41.322Z,100.00
2022-10-10T22:46:09.517Z,100.00
2022-10-10T22:48:37.426Z,100.00
2022-10-10T22:51:07.175Z,100.00
2022-10-10T22:53:34.981Z,100.00
2022-10-10T22:56:04.592Z,100.00
2022-10-10T22:58:32.996Z,100.00
2022-10-10T23:01:04.282Z,100.00
2022-10-10T23:03:31.821Z,100.00
2022-10-10T23:05:59.388Z,100.00
2022-10-10T23:08:26.908Z,100.00
2022-10-10T23:10:54.531Z,100.00
2022-10-10T23:13:23.433Z,100.00
2022-10-10T23:15:50.968Z,100.00
2022-10-10T23:18:18.454Z,100.00
2022-10-10T23:20:46.456Z,100.00
2022-10-10T23:23:14.162Z,100.00
2022-10-10T23:25:41.824Z,100.00
2022-10-10T23:28:09.576Z,100.00
2022-10-10T23:30:40.238Z,100.00
2022-10-10T23:33:07.903Z,100.00
2022-10-10T23:35:35.804Z,100.00
2022-10-10T23:38:03.358Z,100.00
2022-10-10T23:40:32.676Z,100.00
2022-10-10T23:43:00.599Z,100.00
2022-10-10T23:45:28.100Z,100.00
2022-10-10T23:47:56.956Z,100.00
2022-10-10T23:50:24.491Z,100.00
2022-10-10T23:52:51.985Z,100.00
2022-10-10T23:55:19.511Z,100.00
2022-10-10T23:57:47.353Z,100.00
